createdAt,value
2023-03-15T00:06:56.736Z,0.80
2023-03-15T00:16:59.048Z,0.80
2023-03-15T00:27:01.412Z,0.80
2023-03-15T00:37:06.738Z,0.70
2023-03-15T00:47:11.695Z,0.83
2023-03-15T00:57:14.064Z,0.82
2023-03-15T01:07:16.370Z,0.97
2023-03-15T01:17:18.663Z,1.00
2023-03-15T01:27:21.244Z,1.00
2023-03-15T01:37:24.881Z,1.23
2023-03-15T01:47:28.630Z,1.53
2023-03-15T01:57:39.347Z,1.30
2023-03-15T02:07:50.285Z,1.63
2023-03-15T02:17:53.041Z,1.30
2023-03-15T02:27:56.485Z,1.77
2023-03-15T02:38:00.073Z,1.40
2023-03-15T02:48:06.012Z,1.57
2023-03-15T02:58:08.571Z,1.47
2023-03-15T03:08:10.998Z,1.63
2023-03-15T03:18:13.554Z,1.33
2023-03-15T03:28:15.792Z,1.67
2023-03-15T03:38:18.175Z,1.80
2023-03-15T03:48:20.407Z,1.50
2023-03-15T03:58:23.219Z,1.40
2023-03-15T04:08:27.339Z,1.40
2023-03-15T04:18:30.011Z,1.63
2023-03-15T04:28:32.924Z,1.20
2023-03-15T04:38:35.868Z,1.13
2023-03-15T04:48:38.194Z,1.03
2023-03-15T04:58:40.493Z,1.23
2023-03-15T05:08:45.621Z,1.73
2023-03-15T05:18:48.038Z,1.50
2023-03-15T05:28:50.428Z,1.90
2023-03-15T05:38:52.667Z,1.40
2023-03-15T05:48:55.016Z,1.33
2023-03-15T05:58:57.406Z,1.30
2023-03-15T06:08:59.935Z,1.40
2023-03-15T06:19:02.536Z,1.10
2023-03-15T06:29:05.562Z,1.40
2023-03-15T06:39:08.704Z,1.50
2023-03-15T06:49:11.321Z,1.23
2023-03-15T06:59:13.858Z,1.20
2023-03-15T07:09:16.485Z,1.20
2023-03-15T07:19:19.284Z,1.30
2023-03-15T07:29:21.973Z,1.33
2023-03-15T07:39:25.568Z,1.10
2023-03-15T07:49:28.693Z,1.37
2023-03-15T07:59:31.641Z,0.83
2023-03-15T08:09:35.198Z,0.80
2023-03-15T08:19:37.890Z,0.67
2023-03-15T08:29:40.600Z,0.53
2023-03-15T08:39:44.169Z,0.70
2023-03-15T08:49:46.684Z,1.33
2023-03-15T08:59:50.071Z,0.80
2023-03-15T09:09:54.764Z,0.80
2023-03-15T09:19:57.375Z,0.77
2023-03-15T09:30:00.071Z,0.93
2023-03-15T09:40:02.748Z,0.50
2023-03-15T09:50:15.288Z,0.60
2023-03-15T10:00:24.137Z,0.60
2023-03-15T10:10:35.148Z,0.40
2023-03-15T10:20:44.458Z,0.60
2023-03-15T10:30:49.724Z,0.37
2023-03-15T10:40:55.303Z,0.23
2023-03-15T10:51:01.555Z,0.40
2023-03-15T11:01:10.193Z,0.10
2023-03-15T11:11:13.063Z,0.10
2023-03-15T11:21:18.007Z,0.40
2023-03-15T11:41:35.934Z,0.30
2023-03-15T11:51:38.836Z,0.20
2023-03-15T12:02:09.196Z,0.30
2023-03-15T12:12:27.508Z,0.30
2023-03-15T12:22:34.903Z,0.40
2023-03-15T12:32:48.818Z,0.33
2023-03-15T12:42:53.002Z,0.30
2023-03-15T12:53:01.571Z,0.30
2023-03-15T13:03:22.640Z,0.20
2023-03-15T13:13:49.680Z,0.40
2023-03-15T13:23:56.800Z,0.40
2023-03-15T13:34:16.692Z,0.30
2023-03-15T13:44:24.371Z,0.20
2023-03-15T13:54:34.843Z,0.30
2023-03-15T14:04:38.777Z,0.37
2023-03-15T14:14:50.174Z,0.30
2023-03-15T14:24:53.709Z,0.20
2023-03-15T14:35:25.237Z,0.30
2023-03-15T14:45:28.076Z,0.30
2023-03-15T14:55:37.680Z,0.20
2023-03-15T15:05:42.292Z,0.20
2023-03-15T15:26:05.163Z,0.20
2023-03-15T15:36:16.161Z,0.40
2023-03-15T15:46:19.109Z,0.20
2023-03-15T15:56:27.451Z,0.23
2023-03-15T16:06:31.008Z,0.20
2023-03-15T16:16:33.758Z,0.20
2023-03-15T16:26:39.455Z,0.20
2023-03-15T16:36:44.133Z,0.30
2023-03-15T16:46:47.561Z,0.10
2023-03-15T16:56:50.665Z,0.30
2023-03-15T17:06:53.366Z,0.10
2023-03-15T17:16:56.256Z,0.20
2023-03-15T17:26:59.363Z,0.20
2023-03-15T17:37:01.757Z,0.20
2023-03-15T17:47:06.288Z,0.50
2023-03-15T17:57:13.476Z,1.30
2023-03-15T18:07:16.132Z,0.80
2023-03-15T18:17:18.815Z,0.53
2023-03-15T18:27:21.645Z,0.83
2023-03-15T18:37:24.377Z,0.40
2023-03-15T18:47:27.048Z,0.90
2023-03-15T18:57:30.316Z,1.57
2023-03-15T19:07:33.636Z,2.20
2023-03-15T19:17:36.433Z,2.13
2023-03-15T19:27:39.039Z,2.53
2023-03-15T19:37:42.921Z,1.90
2023-03-15T19:47:45.726Z,1.13
2023-03-15T19:57:48.828Z,0.70
2023-03-15T20:07:52.404Z,0.80
2023-03-15T20:17:55.726Z,0.60
2023-03-15T20:27:58.730Z,0.60
2023-03-15T20:38:08.088Z,0.67
2023-03-15T20:48:11.708Z,0.80
2023-03-15T20:58:14.792Z,1.17
2023-03-15T21:08:17.997Z,1.10
2023-03-15T21:18:24.163Z,1.20
2023-03-15T21:28:27.138Z,1.20
2023-03-15T21:38:32.140Z,1.50
2023-03-15T21:48:35.672Z,1.40
2023-03-15T21:58:38.076Z,1.13
2023-03-15T22:08:41.393Z,2.03
2023-03-15T22:18:43.997Z,1.53
2023-03-15T22:28:46.521Z,1.40
2023-03-15T22:38:50.723Z,3.00
2023-03-15T22:48:54.003Z,2.10
2023-03-15T22:58:56.506Z,2.50
2023-03-15T23:08:59.137Z,1.40
2023-03-15T23:19:05.365Z,0.97
2023-03-15T23:29:11.096Z,1.30
2023-03-15T23:39:13.564Z,1.10
2023-03-15T23:49:15.883Z,1.00
2023-03-15T23:59:18.332Z,1.30
